createdAt,value
2018-05-29T00:00:36.940Z,4.00
2018-05-29T00:01:36.932Z,4.00
2018-05-29T00:02:36.933Z,4.00
2018-05-29T00:03:36.911Z,4.00
2018-05-29T00:04:36.898Z,4.00
2018-05-29T00:05:36.893Z,4.00
2018-05-29T00:06:36.879Z,4.00
2018-05-29T00:07:36.869Z,4.00
2018-05-29T00:08:36.864Z,4.00
2018-05-29T00:09:36.847Z,4.00
2018-05-29T00:10:36.839Z,4.00
2018-05-29T00:11:36.827Z,4.00
2018-05-29T00:12:36.817Z,4.00
2018-05-29T00:13:36.817Z,4.00
2018-05-29T00:14:36.795Z,4.00
2018-05-29T00:15:36.785Z,4.00
2018-05-29T00:16:36.773Z,4.00
2018-05-29T00:17:36.772Z,4.00
2018-05-29T00:18:36.753Z,4.00
2018-05-29T00:19:36.744Z,4.00
2018-05-29T00:20:36.738Z,4.00
2018-05-29T00:21:36.721Z,4.00
2018-05-29T00:22:36.710Z,4.00
2018-05-29T00:23:36.700Z,4.00
2018-05-29T00:24:36.688Z,4.00
2018-05-29T00:25:36.684Z,4.00
2018-05-29T00:26:36.670Z,4.00
2018-05-29T00:27:36.667Z,4.00
2018-05-29T00:28:36.646Z,4.00
2018-05-29T00:29:36.635Z,4.00
2018-05-29T00:30:36.624Z,4.00
2018-05-29T00:31:36.618Z,4.00
2018-05-29T00:32:36.602Z,4.00
2018-05-29T00:33:36.593Z,4.00
2018-05-29T00:34:36.584Z,4.00
2018-05-29T00:35:36.573Z,4.00
2018-05-29T00:36:36.561Z,4.00
2018-05-29T00:37:36.556Z,4.00
2018-05-29T00:38:36.541Z,4.00
2018-05-29T00:39:36.530Z,4.00
2018-05-29T00:40:36.523Z,4.00
2018-05-29T00:41:36.508Z,4.00
2018-05-29T00:42:36.497Z,4.00
2018-05-29T00:43:36.494Z,4.00
2018-05-29T00:44:36.476Z,4.00
2018-05-29T00:45:36.466Z,4.00
2018-05-29T00:46:36.457Z,4.00
2018-05-29T00:47:36.445Z,4.00
2018-05-29T00:48:36.438Z,4.00
2018-05-29T00:49:36.433Z,4.00
2018-05-29T00:50:36.415Z,4.00
2018-05-29T00:51:36.401Z,4.00
2018-05-29T00:52:36.395Z,4.00
2018-05-29T00:53:36.380Z,4.00
2018-05-29T00:54:36.377Z,4.00
2018-05-29T00:55:36.360Z,4.00
2018-05-29T00:56:36.346Z,4.00
2018-05-29T00:57:36.339Z,4.00
2018-05-29T00:58:36.333Z,4.00
2018-05-29T00:59:36.316Z,4.00
2018-05-29T01:00:36.303Z,4.00
2018-05-29T01:01:36.292Z,4.00
2018-05-29T01:02:36.281Z,4.00
2018-05-29T01:03:36.273Z,4.00
2018-05-29T01:04:36.258Z,4.00
2018-05-29T01:05:36.257Z,4.00
2018-05-29T01:06:36.242Z,4.00
2018-05-29T01:07:36.227Z,4.00
2018-05-29T01:08:36.221Z,4.00
2018-05-29T01:09:36.215Z,4.00
2018-05-29T01:10:36.203Z,4.00
2018-05-29T01:11:36.186Z,4.00
2018-05-29T01:12:36.205Z,4.00
2018-05-29T01:13:36.171Z,4.00
2018-05-29T01:14:36.152Z,4.00
2018-05-29T01:15:36.143Z,4.00
2018-05-29T01:16:36.130Z,4.00
2018-05-29T01:17:36.124Z,4.00
2018-05-29T01:18:36.109Z,4.00
2018-05-29T01:19:36.097Z,4.00
2018-05-29T01:20:36.085Z,4.00
2018-05-29T01:21:36.074Z,4.00
2018-05-29T01:22:36.065Z,4.00
2018-05-29T01:23:36.053Z,4.00
2018-05-29T01:24:36.044Z,4.00
2018-05-29T01:25:36.032Z,4.00
2018-05-29T01:26:36.028Z,4.00
2018-05-29T01:27:36.010Z,4.00
2018-05-29T01:28:35.999Z,4.00
2018-05-29T01:29:35.988Z,4.00
2018-05-29T01:30:35.976Z,4.00
2018-05-29T01:31:35.987Z,4.00
2018-05-29T01:32:35.954Z,4.00
2018-05-29T01:33:35.947Z,4.00
2018-05-29T01:34:35.933Z,4.00
2018-05-29T01:35:35.922Z,4.00
2018-05-29T01:36:35.919Z,4.00
2018-05-29T01:37:35.907Z,4.00
2018-05-29T01:38:35.898Z,4.00
2018-05-29T01:39:35.879Z,4.00
2018-05-29T01:40:35.866Z,4.00
2018-05-29T01:41:35.854Z,4.00
2018-05-29T01:42:35.845Z,4.00
2018-05-29T01:43:35.836Z,4.00
2018-05-29T01:44:35.823Z,4.00
2018-05-29T01:45:35.812Z,4.00
2018-05-29T01:46:35.799Z,4.00
2018-05-29T01:47:35.792Z,4.00
2018-05-29T01:48:35.778Z,4.00
2018-05-29T01:49:35.769Z,4.00
2018-05-29T01:50:35.755Z,4.00
2018-05-29T01:51:35.745Z,4.00
2018-05-29T01:52:35.734Z,4.00
2018-05-29T01:53:35.727Z,4.00
2018-05-29T01:54:35.712Z,4.00
2018-05-29T01:55:35.702Z,4.00
2018-05-29T01:56:35.689Z,4.00
2018-05-29T01:57:35.678Z,4.00
2018-05-29T01:58:35.668Z,4.00
2018-05-29T01:59:35.657Z,8.00
2018-05-29T02:00:35.644Z,8.00
2018-05-29T02:01:35.634Z,8.00
2018-05-29T02:02:35.624Z,8.00
2018-05-29T02:03:35.612Z,8.00
2018-05-29T02:04:35.659Z,8.00
2018-05-29T02:05:35.593Z,8.00
2018-05-29T02:06:35.581Z,8.00
2018-05-29T02:07:35.567Z,8.00
2018-05-29T02:08:35.558Z,8.00
2018-05-29T02:09:35.550Z,8.00
2018-05-29T02:10:35.582Z,8.00
2018-05-29T02:11:35.521Z,8.00
2018-05-29T02:12:35.510Z,8.00
2018-05-29T02:13:35.499Z,8.00
2018-05-29T02:14:35.487Z,8.00
2018-05-29T02:15:35.481Z,8.00
2018-05-29T02:16:35.463Z,4.00
2018-05-29T02:17:35.453Z,8.00
2018-05-29T02:18:35.441Z,4.00
2018-05-29T02:19:35.431Z,8.00
2018-05-29T02:20:35.417Z,4.00
2018-05-29T02:21:35.407Z,4.00
2018-05-29T02:22:35.397Z,4.00
2018-05-29T02:23:35.385Z,4.00
2018-05-29T02:24:35.374Z,4.00
2018-05-29T02:25:35.362Z,4.00
2018-05-29T02:26:35.354Z,4.00
2018-05-29T02:27:35.339Z,4.00
2018-05-29T02:28:35.331Z,4.00
2018-05-29T02:29:35.316Z,4.00
2018-05-29T02:30:35.308Z,4.00
2018-05-29T02:31:35.303Z,4.00
2018-05-29T02:32:35.283Z,4.00
2018-05-29T02:33:35.324Z,8.00
2018-05-29T02:34:35.260Z,8.00
2018-05-29T02:35:35.248Z,8.00
2018-05-29T02:36:35.238Z,4.00
2018-05-29T02:37:35.227Z,4.00
2018-05-29T02:38:35.217Z,8.00
2018-05-29T02:39:35.202Z,8.00
2018-05-29T02:40:35.192Z,8.00
2018-05-29T02:41:35.181Z,8.00
2018-05-29T02:42:35.169Z,8.00
2018-05-29T02:43:35.158Z,12.00
2018-05-29T02:44:35.157Z,8.00
2018-05-29T02:45:35.134Z,12.00
2018-05-29T02:46:35.124Z,12.00
2018-05-29T02:47:35.115Z,12.00
2018-05-29T02:48:35.100Z,16.00
2018-05-29T02:49:35.095Z,16.00
2018-05-29T02:50:35.084Z,16.00
2018-05-29T02:51:35.068Z,16.00
2018-05-29T02:52:35.053Z,20.00
2018-05-29T02:53:35.050Z,24.00
2018-05-29T02:54:35.033Z,24.00
2018-05-29T02:55:35.019Z,24.00
2018-05-29T02:56:35.008Z,24.00
2018-05-29T02:57:34.995Z,24.00
2018-05-29T02:58:34.987Z,32.00
2018-05-29T02:59:34.972Z,36.00
2018-05-29T03:00:34.961Z,40.00
2018-05-29T03:01:34.957Z,44.00
2018-05-29T03:02:34.939Z,52.00
2018-05-29T03:03:34.928Z,56.00
2018-05-29T03:04:34.915Z,64.00
2018-05-29T03:05:34.904Z,76.00
2018-05-29T03:06:34.893Z,84.00
2018-05-29T03:07:34.881Z,92.00
2018-05-29T03:08:34.869Z,100.00
2018-05-29T03:09:34.857Z,112.00
2018-05-29T03:10:34.848Z,120.00
2018-05-29T03:11:34.834Z,132.00
2018-05-29T03:12:34.823Z,144.00
2018-05-29T03:13:34.812Z,156.00
2018-05-29T03:14:34.808Z,172.00
2018-05-29T03:15:34.789Z,184.00
2018-05-29T03:16:34.777Z,196.00
2018-05-29T03:17:34.764Z,212.00
2018-05-29T03:18:34.754Z,224.00
2018-05-29T03:19:34.742Z,236.00
2018-05-29T03:20:34.732Z,248.00
2018-05-29T03:21:34.717Z,264.00
2018-05-29T03:22:34.711Z,288.00
2018-05-29T03:23:34.704Z,308.00
2018-05-29T03:24:34.683Z,332.00
2018-05-29T03:25:34.673Z,360.00
2018-05-29T03:26:34.676Z,384.00
2018-05-29T03:27:34.651Z,412.00
2018-05-29T03:28:34.637Z,444.00
2018-05-29T03:29:34.627Z,476.00
2018-05-29T03:30:34.622Z,512.00
2018-05-29T03:31:34.605Z,552.00
2018-05-29T03:32:34.596Z,588.00
2018-05-29T03:33:34.579Z,632.00
2018-05-29T03:34:34.569Z,676.00
2018-05-29T03:35:34.557Z,724.00
2018-05-29T03:36:34.548Z,772.00
2018-05-29T03:37:34.535Z,816.00
2018-05-29T03:38:34.524Z,864.00
2018-05-29T03:39:34.512Z,916.00
2018-05-29T03:40:34.496Z,964.00
2018-05-29T03:41:34.504Z,1012.00
2018-05-29T03:42:34.476Z,1064.00
2018-05-29T03:43:34.464Z,1120.00
2018-05-29T03:44:34.453Z,1172.00
2018-05-29T03:45:34.445Z,1224.00
2018-05-29T03:46:34.429Z,1280.00
2018-05-29T03:47:34.418Z,1328.00
2018-05-29T03:48:34.417Z,1376.00
2018-05-29T03:49:34.397Z,1424.00
2018-05-29T03:50:34.383Z,1472.00
2018-05-29T03:51:34.372Z,1520.00
2018-05-29T03:52:34.364Z,1572.00
2018-05-29T03:53:34.346Z,1620.00
2018-05-29T03:54:34.336Z,1680.00
2018-05-29T03:55:34.335Z,1744.00
2018-05-29T03:56:34.313Z,1808.00
2018-05-29T03:57:34.401Z,1872.00
2018-05-29T03:58:34.291Z,1932.00
2018-05-29T03:59:34.278Z,1988.00
2018-05-29T04:00:34.266Z,2052.00
2018-05-29T04:01:34.253Z,2112.00
2018-05-29T04:03:34.231Z,2252.00
2018-05-29T04:04:34.219Z,2308.00
2018-05-29T04:05:34.207Z,2368.00
2018-05-29T04:06:34.205Z,2420.00
2018-05-29T04:07:34.186Z,2472.00
2018-05-29T04:08:34.175Z,2512.00
2018-05-29T04:09:34.161Z,2560.00
2018-05-29T04:10:34.151Z,2600.00
2018-05-29T04:11:34.139Z,2636.00
2018-05-29T04:12:34.131Z,2676.00
2018-05-29T04:13:34.116Z,2712.00
2018-05-29T04:14:34.105Z,2736.00
2018-05-29T04:15:34.099Z,2768.00
2018-05-29T04:16:34.083Z,2792.00
2018-05-29T04:17:34.069Z,2828.00
2018-05-29T04:18:34.059Z,2860.00
2018-05-29T04:19:34.048Z,2888.00
2018-05-29T04:20:34.037Z,2928.00
2018-05-29T04:21:34.032Z,2968.00
2018-05-29T04:22:34.022Z,3020.00
2018-05-29T04:23:34.003Z,3064.00
2018-05-29T04:24:33.988Z,3112.00
2018-05-29T04:25:33.984Z,3164.00
2018-05-29T04:26:33.967Z,3216.00
2018-05-29T04:28:33.941Z,3320.00
2018-05-29T04:29:33.933Z,3372.00
2018-05-29T04:30:33.935Z,3428.00
2018-05-29T04:31:33.916Z,3484.00
2018-05-29T04:32:33.898Z,3548.00
2018-05-29T04:33:33.887Z,3620.00
2018-05-29T04:34:33.878Z,3688.00
2018-05-29T04:35:33.863Z,3760.00
2018-05-29T04:36:33.853Z,3844.00
2018-05-29T04:37:33.839Z,3912.00
2018-05-29T04:38:33.835Z,3976.00
2018-05-29T04:39:33.817Z,4032.00
2018-05-29T04:40:33.807Z,4092.00
2018-05-29T04:41:33.800Z,4156.00
2018-05-29T04:42:33.795Z,4228.00
2018-05-29T04:43:33.773Z,4308.00
2018-05-29T04:44:33.761Z,4388.00
2018-05-29T04:45:33.749Z,4456.00
2018-05-29T04:46:33.738Z,4516.00
2018-05-29T04:47:33.726Z,4580.00
2018-05-29T04:48:33.716Z,4636.00
2018-05-29T04:49:33.750Z,4696.00
2018-05-29T04:50:33.701Z,4760.00
2018-05-29T04:51:33.681Z,4844.00
2018-05-29T04:52:33.668Z,4928.00
2018-05-29T04:53:33.660Z,4996.00
2018-05-29T04:54:33.656Z,5064.00
2018-05-29T04:55:33.636Z,5128.00
2018-05-29T04:56:33.637Z,5200.00
2018-05-29T04:57:33.616Z,5252.00
2018-05-29T04:58:33.604Z,5284.00
2018-05-29T04:59:33.592Z,5336.00
2018-05-29T05:00:33.585Z,5392.00
2018-05-29T05:01:33.569Z,5440.00
2018-05-29T05:02:33.563Z,5468.00
2018-05-29T05:03:33.547Z,5520.00
2018-05-29T05:04:33.536Z,5576.00
2018-05-29T05:05:33.524Z,5640.00
2018-05-29T05:06:33.513Z,5752.00
2018-05-29T05:07:33.507Z,5888.00
2018-05-29T05:08:33.510Z,5972.00
2018-05-29T05:09:33.482Z,6068.00
2018-05-29T05:10:33.469Z,6140.00
2018-05-29T05:11:33.459Z,6232.00
2018-05-29T05:12:33.446Z,6332.00
2018-05-29T05:13:33.435Z,6440.00
2018-05-29T05:14:33.425Z,6524.00
2018-05-29T05:15:33.413Z,6664.00
2018-05-29T05:16:33.402Z,6796.00
2018-05-29T05:17:33.393Z,6888.00
2018-05-29T05:18:33.384Z,7024.00
2018-05-29T05:19:33.370Z,7140.00
2018-05-29T05:20:33.359Z,7244.00
2018-05-29T05:21:33.347Z,7340.00
2018-05-29T05:22:33.337Z,7416.00
2018-05-29T05:23:33.444Z,7468.00
2018-05-29T05:24:33.314Z,7572.00
2018-05-29T05:25:33.303Z,7676.00
2018-05-29T05:26:33.291Z,7816.00
2018-05-29T05:27:33.296Z,7976.00
2018-05-29T05:28:33.269Z,8108.00
2018-05-29T05:29:33.265Z,8220.00
2018-05-29T05:30:33.248Z,8316.00
2018-05-29T05:31:33.252Z,8460.00
2018-05-29T05:32:33.228Z,8664.00
2018-05-29T05:33:33.216Z,9204.00
2018-05-29T05:34:33.205Z,13172.00
2018-05-29T05:35:33.198Z,23616.00
2018-05-29T05:36:33.187Z,33184.00
2018-05-29T05:37:33.173Z,35488.00
2018-05-29T05:38:33.174Z,34976.00
2018-05-29T05:39:33.176Z,32768.00
2018-05-29T05:40:33.141Z,32096.00
2018-05-29T05:41:33.137Z,34272.00
2018-05-29T05:42:33.126Z,37568.00
2018-05-29T05:43:33.113Z,38272.00
2018-05-29T05:44:33.107Z,38464.00
2018-05-29T05:45:33.093Z,38144.00
2018-05-29T05:46:33.087Z,38080.00
2018-05-29T05:47:33.078Z,36864.00
2018-05-29T05:48:33.068Z,37088.00
2018-05-29T05:49:33.070Z,38016.00
2018-05-29T05:50:33.055Z,38240.00
2018-05-29T05:51:33.045Z,38112.00
2018-05-29T05:52:33.039Z,38240.00
2018-05-29T05:53:33.033Z,39616.00
2018-05-29T05:54:33.025Z,40736.00
2018-05-29T05:55:33.019Z,40960.00
2018-05-29T05:56:33.017Z,41056.00
2018-05-29T05:57:33.006Z,40992.00
2018-05-29T05:58:33.092Z,43712.00
2018-05-29T05:59:32.995Z,46176.00
2018-05-29T06:00:32.988Z,46432.00
2018-05-29T06:01:32.984Z,44576.00
2018-05-29T06:02:32.980Z,43744.00
2018-05-29T06:03:32.981Z,44192.00
2018-05-29T06:04:32.978Z,43840.00
2018-05-29T06:05:32.972Z,45760.00
2018-05-29T06:06:32.961Z,48096.00
2018-05-29T06:07:32.958Z,48352.00
2018-05-29T06:08:32.952Z,47968.00
2018-05-29T06:09:32.950Z,47488.00
2018-05-29T06:10:32.951Z,47552.00
2018-05-29T06:11:32.942Z,48864.00
2018-05-29T06:12:32.946Z,50752.00
2018-05-29T06:13:32.934Z,52864.00
2018-05-29T06:14:32.937Z,53920.00
2018-05-29T06:15:32.930Z,54496.00
2018-05-29T06:16:32.933Z,54240.00
2018-05-29T06:17:32.924Z,51360.00
2018-05-29T06:18:32.923Z,51040.00
2018-05-29T06:19:32.921Z,51040.00
2018-05-29T06:20:32.920Z,52672.00
2018-05-29T06:21:32.916Z,55552.00
2018-05-29T06:22:32.931Z,55552.00
2018-05-29T06:23:32.913Z,53664.00
2018-05-29T06:24:32.913Z,54208.00
2018-05-29T06:25:32.910Z,55808.00
2018-05-29T06:26:32.908Z,53696.00
2018-05-29T06:27:32.909Z,51104.00
2018-05-29T06:28:32.915Z,50368.00
2018-05-29T06:29:32.905Z,50560.00
2018-05-29T06:30:32.905Z,50080.00
2018-05-29T06:31:32.905Z,51392.00
2018-05-29T06:32:32.907Z,59584.00
2018-05-29T06:33:32.902Z,66528.00
2018-05-29T06:34:32.904Z,67136.00
2018-05-29T06:35:32.904Z,67040.00
2018-05-29T06:36:32.903Z,66208.00
2018-05-29T06:37:32.909Z,62336.00
2018-05-29T06:38:32.905Z,55584.00
2018-05-29T06:39:32.905Z,49760.00
2018-05-29T06:40:32.904Z,49696.00
2018-05-29T06:41:32.907Z,51296.00
2018-05-29T06:42:32.908Z,53024.00
2018-05-29T06:43:32.909Z,53760.00
2018-05-29T06:44:32.909Z,52480.00
2018-05-29T06:45:32.917Z,54304.00
2018-05-29T06:46:32.918Z,57760.00
2018-05-29T06:47:32.922Z,58240.00
2018-05-29T06:48:32.912Z,55520.00
2018-05-29T06:49:32.913Z,51392.00
2018-05-29T06:50:32.915Z,46208.00
2018-05-29T06:51:32.917Z,41536.00
2018-05-29T06:52:32.958Z,39616.00
2018-05-29T06:53:32.916Z,39936.00
2018-05-29T06:54:32.918Z,40736.00
2018-05-29T06:55:32.919Z,40256.00
2018-05-29T06:56:32.919Z,40704.00
2018-05-29T06:57:32.922Z,40384.00
2018-05-29T06:58:32.942Z,39040.00
2018-05-29T06:59:32.925Z,48032.00
2018-05-29T07:00:32.923Z,22112.00
2018-05-29T07:01:32.926Z,46560.00
2018-05-29T07:02:32.928Z,19456.00
2018-05-29T07:03:32.930Z,26208.00
2018-05-29T07:04:32.932Z,23616.00
2018-05-29T07:05:32.947Z,33504.00
2018-05-29T07:06:32.934Z,43840.00
2018-05-29T07:07:32.935Z,40288.00
2018-05-29T07:08:32.937Z,34752.00
2018-05-29T07:09:32.939Z,36064.00
2018-05-29T07:10:32.945Z,46272.00
2018-05-29T07:11:32.939Z,52960.00
2018-05-29T07:12:32.946Z,53184.00
2018-05-29T07:13:32.940Z,53280.00
2018-05-29T07:14:33.005Z,54400.00
2018-05-29T07:15:32.940Z,57568.00
2018-05-29T07:16:32.941Z,61952.00
2018-05-29T07:17:32.952Z,63296.00
2018-05-29T07:18:32.944Z,62208.00
2018-05-29T07:19:32.945Z,61664.00
2018-05-29T07:20:32.952Z,65376.00
2018-05-29T07:21:32.948Z,67712.00
2018-05-29T07:22:32.949Z,69344.00
2018-05-29T07:23:32.951Z,47840.00
2018-05-29T07:24:32.953Z,22720.00
2018-05-29T07:25:32.954Z,57664.00
2018-05-29T07:26:32.956Z,15512.00
2018-05-29T07:27:32.959Z,15536.00
2018-05-29T07:28:32.959Z,16324.00
2018-05-29T07:29:32.961Z,15520.00
2018-05-29T07:30:32.968Z,19616.00
2018-05-29T07:31:32.964Z,17000.00
2018-05-29T07:32:32.964Z,14256.00
2018-05-29T07:33:32.967Z,13424.00
2018-05-29T07:34:32.966Z,13740.00
2018-05-29T07:35:32.970Z,13528.00
2018-05-29T07:36:32.967Z,27456.00
2018-05-29T07:37:32.970Z,14424.00
2018-05-29T07:38:32.965Z,26336.00
2018-05-29T07:39:33.024Z,15016.00
2018-05-29T07:40:32.975Z,15456.00
2018-05-29T07:41:32.964Z,18240.00
2018-05-29T07:42:32.964Z,10708.00
2018-05-29T07:43:32.962Z,14672.00
2018-05-29T07:44:32.966Z,12880.00
2018-05-29T07:45:32.959Z,14344.00
2018-05-29T07:46:32.956Z,40640.00
2018-05-29T07:47:32.963Z,13656.00
2018-05-29T07:48:32.953Z,18656.00
2018-05-29T07:49:32.952Z,14840.00
2018-05-29T07:50:32.948Z,14988.00
2018-05-29T07:51:32.948Z,49216.00
2018-05-29T07:52:32.944Z,14980.00
2018-05-29T07:53:32.942Z,14828.00
2018-05-29T07:54:32.940Z,24032.00
2018-05-29T07:55:32.937Z,16256.00
2018-05-29T07:56:32.936Z,38208.00
2018-05-29T07:57:32.930Z,53984.00
2018-05-29T07:58:32.929Z,14740.00
2018-05-29T07:59:32.926Z,21504.00
2018-05-29T08:00:32.923Z,13868.00
2018-05-29T08:01:32.925Z,67488.00
2018-05-29T08:02:32.917Z,13712.00
2018-05-29T08:03:32.914Z,13708.00
2018-05-29T08:04:32.916Z,16344.00
2018-05-29T08:05:32.908Z,33184.00
2018-05-29T08:06:32.913Z,13988.00
2018-05-29T08:07:32.903Z,15540.00
2018-05-29T08:08:32.904Z,35968.00
2018-05-29T08:09:32.904Z,14140.00
2018-05-29T08:10:32.910Z,36768.00
2018-05-29T08:11:32.893Z,13544.00
2018-05-29T08:12:32.887Z,13328.00
2018-05-29T08:13:32.891Z,13392.00
2018-05-29T08:14:32.878Z,13836.00
2018-05-29T08:15:32.876Z,13628.00
2018-05-29T08:16:32.879Z,13484.00
2018-05-29T08:17:32.877Z,13348.00
2018-05-29T08:18:32.887Z,13748.00
2018-05-29T08:19:32.860Z,13408.00
2018-05-29T08:20:32.857Z,13136.00
2018-05-29T08:21:32.853Z,13284.00
2018-05-29T08:22:32.855Z,13004.00
2018-05-29T08:23:32.848Z,13076.00
2018-05-29T08:24:32.887Z,13084.00
2018-05-29T08:25:32.836Z,13136.00
2018-05-29T08:26:32.831Z,13164.00
2018-05-29T08:27:32.832Z,13048.00
2018-05-29T08:28:32.823Z,13184.00
2018-05-29T08:29:32.820Z,13248.00
2018-05-29T08:30:32.815Z,13372.00
2018-05-29T08:31:32.812Z,13832.00
2018-05-29T08:32:32.813Z,13796.00
2018-05-29T08:33:32.808Z,14284.00
2018-05-29T08:34:32.797Z,14224.00
2018-05-29T08:36:16.928Z,14148.00
2018-05-29T08:37:17.932Z,14136.00
2018-05-29T08:38:16.916Z,22400.00
2018-05-29T08:40:25.998Z,14524.00
2018-05-29T08:41:25.991Z,19676.00
2018-05-29T08:42:25.977Z,15440.00
2018-05-29T08:43:25.982Z,10964.00
2018-05-29T08:44:25.969Z,14948.00
2018-05-29T08:45:25.964Z,14880.00
2018-05-29T08:46:25.964Z,19328.00
2018-05-29T08:47:25.964Z,16028.00
2018-05-29T08:48:25.950Z,21216.00
2018-05-29T08:49:25.943Z,15572.00
2018-05-29T08:50:25.938Z,19680.00
2018-05-29T08:51:26.950Z,16252.00
2018-05-29T08:52:25.941Z,4896.00
2018-05-29T08:53:25.942Z,16588.00
2018-05-29T09:00:19.586Z,82464.00
2018-05-29T09:01:19.572Z,84896.00
2018-05-29T09:02:19.569Z,63616.00
2018-05-29T09:03:19.565Z,85216.00
2018-05-29T09:04:19.571Z,30176.00
2018-05-29T09:05:19.565Z,20640.00
2018-05-29T09:06:19.553Z,82432.00
2018-05-29T09:07:19.550Z,102880.00
2018-05-29T09:08:19.547Z,104576.00
2018-05-29T09:09:19.547Z,94816.00
2018-05-29T09:10:22.569Z,90176.00
2018-05-29T09:11:20.958Z,16968.00
2018-05-29T09:14:37.846Z,35424.00
2018-05-29T09:15:37.844Z,89952.00
2018-05-29T09:16:37.843Z,86752.00
2018-05-29T09:17:37.839Z,81216.00
2018-05-29T09:18:37.846Z,87680.00
2018-05-29T09:19:37.839Z,89344.00
2018-05-29T09:20:37.847Z,67328.00
2018-05-29T09:21:37.835Z,28224.00
2018-05-29T09:22:37.842Z,19136.00
2018-05-29T09:23:37.835Z,101824.00
2018-05-29T09:24:37.834Z,10808.00
2018-05-29T09:25:37.832Z,20768.00
2018-05-29T09:26:37.836Z,22464.00
2018-05-29T09:27:37.831Z,20352.00
2018-05-29T09:28:37.836Z,19648.00
2018-05-29T09:29:37.842Z,20736.00
2018-05-29T09:30:37.830Z,90816.00
2018-05-29T09:31:37.837Z,21056.00
2018-05-29T09:32:37.833Z,18592.00
2018-05-29T09:33:37.830Z,71840.00
2018-05-29T09:34:37.828Z,86336.00
2018-05-29T09:35:37.830Z,22624.00
2018-05-29T09:37:39.334Z,74848.00
2018-05-29T09:38:39.331Z,79520.00
2018-05-29T09:39:39.342Z,72320.00
2018-05-29T09:40:39.333Z,42912.00
2018-05-29T09:41:39.344Z,73984.00
2018-05-29T09:42:39.337Z,53760.00
2018-05-29T09:43:39.342Z,101216.00
2018-05-29T09:44:39.383Z,94752.00
2018-05-29T09:45:39.341Z,94720.00
2018-05-29T09:46:39.353Z,46944.00
2018-05-29T09:47:39.344Z,96288.00
2018-05-29T09:48:39.345Z,78848.00
2018-05-29T09:49:39.347Z,26816.00
2018-05-29T09:50:39.353Z,20160.00
2018-05-29T09:51:39.353Z,18552.00
2018-05-29T09:52:39.370Z,22528.00
2018-05-29T09:53:39.355Z,30048.00
2018-05-29T09:54:39.355Z,20608.00
2018-05-29T09:55:39.365Z,59392.00
2018-05-29T09:56:39.358Z,22240.00
2018-05-29T09:57:39.359Z,38368.00
2018-05-29T09:58:39.363Z,43104.00
2018-05-29T09:59:39.366Z,27072.00
2018-05-29T10:00:39.364Z,57920.00
2018-05-29T10:01:39.361Z,29376.00
2018-05-29T10:02:39.376Z,90720.00
2018-05-29T10:03:39.365Z,48576.00
2018-05-29T10:04:39.366Z,101536.00
2018-05-29T10:05:39.367Z,99616.00
2018-05-29T10:06:39.374Z,76480.00
2018-05-29T10:07:39.370Z,105696.00
2018-05-29T10:08:39.372Z,109440.00
2018-05-29T10:09:39.373Z,85088.00
2018-05-29T10:10:39.371Z,103744.00
2018-05-29T10:11:39.381Z,45696.00
2018-05-29T10:12:39.381Z,105280.00
2018-05-29T10:13:39.379Z,35360.00
2018-05-29T10:14:42.821Z,114624.00
2018-05-29T10:15:39.389Z,106656.00
2018-05-29T10:16:39.387Z,108608.00
2018-05-29T10:17:39.424Z,105856.00
2018-05-29T10:18:39.390Z,100736.00
2018-05-29T10:19:39.404Z,99424.00
2018-05-29T10:20:39.400Z,87008.00
2018-05-29T10:21:39.408Z,89728.00
2018-05-29T10:22:39.410Z,97312.00
2018-05-29T10:23:39.417Z,102496.00
2018-05-29T10:24:39.435Z,103936.00
2018-05-29T10:25:39.425Z,107168.00
2018-05-29T10:26:39.427Z,106432.00
2018-05-29T10:27:39.434Z,107584.00
2018-05-29T10:28:39.439Z,106432.00
2018-05-29T10:29:39.441Z,106176.00
2018-05-29T10:30:39.462Z,104960.00
2018-05-29T10:31:39.451Z,99680.00
2018-05-29T10:32:39.460Z,95648.00
2018-05-29T10:33:39.462Z,97536.00
2018-05-29T10:34:39.471Z,99584.00
2018-05-29T10:35:39.476Z,98176.00
2018-05-29T10:36:39.489Z,88768.00
2018-05-29T10:37:39.488Z,84864.00
2018-05-29T10:38:39.505Z,85216.00
2018-05-29T10:39:39.497Z,91104.00
2018-05-29T10:40:39.521Z,94720.00
2018-05-29T10:41:39.515Z,92672.00
2018-05-29T10:42:39.518Z,89760.00
2018-05-29T10:43:39.525Z,85408.00
2018-05-29T10:44:39.531Z,85152.00
2018-05-29T10:45:39.544Z,80000.00
2018-05-29T10:46:39.553Z,86400.00
2018-05-29T10:47:39.560Z,90272.00
2018-05-29T10:48:39.560Z,85792.00
2018-05-29T10:49:39.567Z,92672.00
2018-05-29T10:50:39.574Z,91712.00
2018-05-29T10:51:39.588Z,90240.00
2018-05-29T10:52:39.595Z,91904.00
2018-05-29T10:53:39.595Z,95680.00
2018-05-29T10:54:39.603Z,95104.00
2018-05-29T10:55:39.609Z,89408.00
2018-05-29T10:56:39.617Z,86944.00
2018-05-29T10:57:39.625Z,86112.00
2018-05-29T10:58:39.644Z,88832.00
2018-05-29T10:59:39.636Z,96320.00
2018-05-29T11:00:39.647Z,94592.00
2018-05-29T11:01:39.653Z,89632.00
2018-05-29T11:02:39.661Z,91520.00
2018-05-29T11:03:39.667Z,95744.00
2018-05-29T11:04:39.674Z,90816.00
2018-05-29T11:05:39.684Z,86624.00
2018-05-29T11:06:39.696Z,90400.00
2018-05-29T11:07:39.712Z,93856.00
2018-05-29T11:08:39.710Z,91968.00
2018-05-29T11:09:39.712Z,88448.00
2018-05-29T11:10:39.727Z,87424.00
2018-05-29T11:11:39.725Z,85760.00
2018-05-29T11:12:39.735Z,88288.00
2018-05-29T11:13:39.741Z,90944.00
2018-05-29T11:14:39.748Z,92128.00
2018-05-29T11:15:39.756Z,91168.00
2018-05-29T11:16:39.763Z,88384.00
2018-05-29T11:17:39.772Z,86624.00
2018-05-29T11:18:39.780Z,88640.00
2018-05-29T11:19:39.792Z,90208.00
2018-05-29T11:20:39.792Z,88032.00
2018-05-29T11:21:39.804Z,87712.00
2018-05-29T11:22:39.811Z,88032.00
2018-05-29T11:23:39.818Z,84352.00
2018-05-29T11:24:39.826Z,86944.00
2018-05-29T11:25:39.835Z,87040.00
2018-05-29T11:26:39.840Z,89120.00
2018-05-29T11:27:39.849Z,91648.00
2018-05-29T11:28:39.857Z,90496.00
2018-05-29T11:29:39.871Z,86400.00
2018-05-29T11:30:39.867Z,87936.00
2018-05-29T11:31:39.876Z,88192.00
2018-05-29T11:32:39.891Z,84160.00
2018-05-29T11:33:39.891Z,76896.00
2018-05-29T11:34:39.895Z,73920.00
2018-05-29T11:35:39.910Z,76256.00
2018-05-29T11:36:39.907Z,75712.00
2018-05-29T11:37:39.914Z,72512.00
2018-05-29T11:38:39.971Z,70208.00
2018-05-29T11:39:39.925Z,67936.00
2018-05-29T11:40:39.931Z,67264.00
2018-05-29T11:41:39.938Z,72576.00
2018-05-29T11:42:39.940Z,76672.00
2018-05-29T11:43:39.948Z,44736.00
2018-05-29T11:44:39.952Z,16916.00
2018-05-29T11:45:39.956Z,15744.00
2018-05-29T11:46:39.962Z,15416.00
2018-05-29T11:47:39.969Z,15816.00
2018-05-29T11:48:40.033Z,16956.00
2018-05-29T11:49:39.970Z,14924.00
2018-05-29T11:50:39.983Z,14508.00
2018-05-29T11:51:39.987Z,13616.00
2018-05-29T11:52:39.978Z,13808.00
2018-05-29T11:53:39.986Z,14396.00
2018-05-29T11:54:39.981Z,15324.00
2018-05-29T11:55:39.991Z,15216.00
2018-05-29T11:56:39.984Z,14592.00
2018-05-29T11:57:39.996Z,12916.00
2018-05-29T11:58:39.995Z,11940.00
2018-05-29T11:59:39.987Z,12020.00
2018-05-29T12:00:40.091Z,14840.00
2018-05-29T12:01:40.003Z,19040.00
2018-05-29T12:02:39.992Z,21984.00
2018-05-29T12:03:39.994Z,20928.00
2018-05-29T12:04:39.987Z,17632.00
2018-05-29T12:05:39.987Z,13484.00
2018-05-29T12:06:39.989Z,14240.00
2018-05-29T12:07:40.043Z,15828.00
2018-05-29T12:08:39.985Z,16748.00
2018-05-29T12:09:39.984Z,17516.00
2018-05-29T12:10:39.983Z,18048.00
2018-05-29T12:11:39.980Z,18592.00
2018-05-29T12:12:39.989Z,20096.00
2018-05-29T12:13:39.979Z,20704.00
2018-05-29T12:14:39.976Z,20672.00
2018-05-29T12:15:39.974Z,18304.00
2018-05-29T12:16:39.983Z,14712.00
2018-05-29T12:17:39.973Z,11616.00
2018-05-29T12:18:39.969Z,10244.00
2018-05-29T12:19:39.967Z,9200.00
2018-05-29T12:20:39.966Z,8572.00
2018-05-29T12:21:39.967Z,8380.00
2018-05-29T12:22:39.964Z,8168.00
2018-05-29T12:23:39.960Z,8056.00